Time;durP1;ratioP1;P1;durP2;ratioP2;P2;SDS_P1;SDS_P2;PMS_P1;PMS_P2;Temp;Humidity;BMP_temperature;BMP_pressure;BME280_temperature;BME280_humidity;BME280_pressure;Samples;Min_cycle;Max_cycle;Signal;HPM_P1;HPM_P2
2023/09/14 00:00:51;;;;;;;16.30;13.50;;;;;;;19.72;99.49;100398.09;105511;1270;112085;-82
2023/09/14 00:03:36;;;;;;;17.10;13.50;;;;;;;19.71;99.55;100396.51;105646;1270;99860;-81
2023/09/14 00:06:22;;;;;;;17.70;13.80;;;;;;;19.68;99.06;100391.17;105532;1273;99281;-82
2023/09/14 00:09:07;;;;;;;17.00;13.70;;;;;;;19.63;99.47;100386.05;105739;1270;99393;-81
2023/09/14 00:11:53;;;;;;;17.30;13.50;;;;;;;19.60;99.73;100391.94;105662;1270;99868;-81
2023/09/14 00:14:38;;;;;;;14.70;12.90;;;;;;;19.60;99.85;100396.51;105569;1273;102755;-81
2023/09/14 00:17:24;;;;;;;17.70;13.80;;;;;;;19.56;99.79;100396.39;105561;1273;100560;-81
2023/09/14 00:20:10;;;;;;;14.40;12.90;;;;;;;19.56;99.89;100396.93;105601;1273;99341;-81
2023/09/14 00:22:57;;;;;;;19.10;13.20;;;;;;;19.54;99.89;100399.30;105722;1270;99352;-81
2023/09/14 00:25:42;;;;;;;17.50;13.80;;;;;;;19.52;99.90;100404.06;105762;1270;99809;-80
2023/09/14 00:28:28;;;;;;;18.80;13.10;;;;;;;19.51;99.99;100403.67;105671;1273;103705;-81
2023/09/14 00:31:15;;;;;;;14.70;12.90;;;;;;;19.51;100.00;100404.52;105695;1270;100402;-81
2023/09/14 00:34:00;;;;;;;15.40;12.80;;;;;;;19.48;100.00;100403.18;105811;1270;100508;-81
2023/09/14 00:36:46;;;;;;;14.80;13.20;;;;;;;19.45;100.00;100402.64;105728;1273;99332;-81
2023/09/14 00:39:32;;;;;;;18.10;12.60;;;;;;;19.40;100.00;100406.48;105767;1270;100463;-83
2023/09/14 00:42:18;;;;;;;16.80;12.40;;;;;;;19.38;100.00;100405.64;105767;1270;103474;-82
2023/09/14 00:45:04;;;;;;;18.20;13.40;;;;;;;19.37;100.00;100408.73;105575;1270;137830;-82
2023/09/14 00:47:58;;;;;;;19.30;13.00;;;;;;;19.35;100.00;100411.95;105576;1270;99345;-82
2023/09/14 00:50:44;;;;;;;18.20;13.80;;;;;;;19.34;100.00;100416.98;105482;1273;99317;-82
2023/09/14 00:53:30;;;;;;;14.90;13.10;;;;;;;19.33;100.00;100418.63;105584;1270;99886;-81
2023/09/14 00:56:15;;;;;;;17.60;13.10;;;;;;;19.31;100.00;100417.52;105569;1273;102865;-80
2023/09/14 00:59:02;;;;;;;16.00;11.70;;;;;;;19.26;100.00;100419.88;105561;1273;99370;-81
2023/09/14 01:01:49;;;;;;;18.80;12.00;;;;;;;19.21;100.00;100422.55;105578;1270;99867;-80
2023/09/14 01:04:34;;;;;;;14.90;11.80;;;;;;;19.14;100.00;100423.09;105651;1270;99293;-80
2023/09/14 01:07:20;;;;;;;16.40;11.90;;;;;;;19.08;100.00;100427.07;105703;1273;99335;-80
2023/09/14 01:10:06;;;;;;;13.70;12.20;;;;;;;19.05;100.00;100425.02;105780;1273;102834;-80
2023/09/14 01:12:52;;;;;;;16.70;11.30;;;;;;;19.04;100.00;100423.90;105541;1270;101011;-80
2023/09/14 01:15:45;;;;;;;13.90;11.90;;;;;;;19.03;100.00;100423.30;105649;1270;99898;-80
2023/09/14 01:18:36;;;;;;;15.90;11.60;;;;;;;19.02;100.00;100423.88;106531;1267;99380;-80
2023/09/14 01:21:30;;;;;;;15.70;12.10;;;;;;;18.99;100.00;100425.73;105763;1273;100703;-80
2023/09/14 01:24:29;;;;;;;13.60;11.30;;;;;;;18.97;100.00;100427.75;105568;1267;104050;-81
2023/09/14 01:27:15;;;;;;;12.60;11.20;;;;;;;18.94;100.00;100430.95;105716;1270;99347;-81
2023/09/14 01:30:03;;;;;;;14.60;11.30;;;;;;;18.90;100.00;100433.23;105725;1271;99246;-80
2023/09/14 01:32:48;;;;;;;13.60;11.40;;;;;;;18.91;100.00;100437.58;105676;1270;99368;-80
2023/09/14 01:35:42;;;;;;;13.60;11.90;;;;;;;18.88;100.00;100441.61;105593;1270;97927;-81
2023/09/14 01:38:30;;;;;;;14.10;11.10;;;;;;;18.88;100.00;100444.80;105662;1273;102753;-80
2023/09/14 01:41:17;;;;;;;21.70;11.70;;;;;;;18.86;100.00;100445.42;105445;1270;99270;-80
2023/09/14 01:44:04;;;;;;;14.10;11.50;;;;;;;18.83;100.00;100445.47;105689;1273;98500;-81
2023/09/14 01:46:49;;;;;;;15.40;11.00;;;;;;;18.78;100.00;100444.40;105574;1273;99798;-80
2023/09/14 01:49:34;;;;;;;14.90;11.10;;;;;;;18.75;100.00;100446.30;105705;1271;99937;-81
2023/09/14 01:52:20;;;;;;;14.80;11.00;;;;;;;18.70;100.00;100447.63;105648;1270;102778;-80
2023/09/14 01:55:06;;;;;;;13.40;10.40;;;;;;;18.67;100.00;100448.05;105806;1268;99473;-80
2023/09/14 01:57:52;;;;;;;12.50;11.00;;;;;;;18.64;100.00;100450.88;105472;1273;99388;-80
2023/09/14 02:00:38;;;;;;;13.00;11.30;;;;;;;18.63;100.00;100455.95;105493;1273;99277;-81
2023/09/14 02:03:23;;;;;;;13.00;11.10;;;;;;;18.63;100.00;100453.94;105592;1268;99284;-81
2023/09/14 02:06:09;;;;;;;14.90;11.20;;;;;;;18.64;100.00;100458.05;105603;1273;104499;-81
2023/09/14 02:08:54;;;;;;;16.10;10.80;;;;;;;18.64;100.00;100456.80;105603;1270;100180;-81
2023/09/14 02:11:40;;;;;;;12.50;9.80;;;;;;;18.61;100.00;100459.77;105590;1273;99298;-81
2023/09/14 02:14:25;;;;;;;13.80;10.90;;;;;;;18.61;100.00;100463.78;105554;1267;99926;-80
2023/09/14 02:17:10;;;;;;;13.50;10.90;;;;;;;18.62;100.00;100466.39;105528;1267;100745;-81
2023/09/14 02:19:55;;;;;;;11.40;10.10;;;;;;;18.59;100.00;100474.34;105705;1273;102678;-80
2023/09/14 02:22:41;;;;;;;13.30;10.60;;;;;;;18.58;100.00;100481.48;105624;1273;100421;-81
2023/09/14 02:25:27;;;;;;;10.70;9.40;;;;;;;18.58;100.00;100483.10;105608;1270;99329;-81
2023/09/14 02:28:13;;;;;;;10.90;9.70;;;;;;;18.58;100.00;100480.13;105746;1273;99396;-81
2023/09/14 02:30:59;;;;;;;10.60;9.50;;;;;;;18.57;100.00;100476.19;105486;1270;99434;-81
2023/09/14 02:33:45;;;;;;;13.30;10.70;;;;;;;18.53;100.00;100473.98;105607;1270;103987;-81
2023/09/14 02:36:30;;;;;;;11.90;9.50;;;;;;;18.49;100.00;100474.35;105675;1272;100059;-80
2023/09/14 02:39:16;;;;;;;15.10;10.20;;;;;;;18.49;100.00;100477.50;105663;1272;100531;-80
2023/09/14 02:42:02;;;;;;;11.40;9.70;;;;;;;18.51;100.00;100483.98;105546;1270;99140;-81
2023/09/14 02:44:47;;;;;;;9.50;8.60;;;;;;;18.54;100.00;100488.53;105562;1269;99332;-80
2023/09/14 02:47:34;;;;;;;11.90;9.10;;;;;;;18.55;100.00;100489.63;105670;1270;104342;-80
2023/09/14 02:50:19;;;;;;;11.00;9.20;;;;;;;18.55;100.00;100487.91;105687;1272;99762;-81
2023/09/14 02:53:05;;;;;;;9.80;8.80;;;;;;;18.55;100.00;100493.67;105634;1270;99380;-81
2023/09/14 02:55:51;;;;;;;11.50;8.60;;;;;;;18.56;100.00;100498.63;105455;1275;99193;-80
2023/09/14 02:58:37;;;;;;;13.00;8.80;;;;;;;18.57;100.00;100505.11;105635;1270;100023;-81
2023/09/14 03:01:22;;;;;;;11.30;7.90;;;;;;;18.57;100.00;100508.09;105464;1274;103285;-81
2023/09/14 03:04:08;;;;;;;9.30;8.30;;;;;;;18.54;100.00;100514.06;105509;1273;99357;-80
2023/09/14 03:06:56;;;;;;;10.40;8.40;;;;;;;18.55;100.00;100515.76;105544;1271;99387;-81
2023/09/14 03:09:42;;;;;;;10.10;7.90;;;;;;;18.58;100.00;100519.77;105709;1270;99429;-81
2023/09/14 03:12:28;;;;;;;9.30;8.30;;;;;;;18.59;100.00;100522.44;105524;1267;99320;-80
2023/09/14 03:15:14;;;;;;;11.20;7.70;;;;;;;18.55;100.00;100523.92;105613;1273;102721;-80
2023/09/14 03:18:00;;;;;;;9.30;7.10;;;;;;;18.56;100.00;100528.13;105512;1270;99241;-81
2023/09/14 03:20:46;;;;;;;11.50;7.50;;;;;;;18.54;100.00;100528.16;105487;1270;99335;-81
2023/09/14 03:23:31;;;;;;;8.20;6.60;;;;;;;18.53;100.00;100533.06;105653;1273;99354;-81
2023/09/14 03:26:17;;;;;;;8.60;7.40;;;;;;;18.50;100.00;100536.38;105502;1269;99887;-80
2023/09/14 03:29:03;;;;;;;9.00;6.70;;;;;;;18.50;100.00;100540.88;105607;1269;103637;-81
2023/09/14 03:31:50;;;;;;;8.60;6.50;;;;;;;18.50;100.00;100543.33;105681;1270;100032;-81
2023/09/14 03:34:36;;;;;;;8.50;6.90;;;;;;;18.51;100.00;100545.77;105518;1273;99350;-82
2023/09/14 03:37:23;;;;;;;12.30;6.70;;;;;;;18.48;100.00;100547.45;105631;1272;99090;-79
2023/09/14 03:40:08;;;;;;;12.10;6.30;;;;;;;18.46;100.00;100556.24;105700;1273;99274;-81
2023/09/14 03:42:55;;;;;;;8.60;6.50;;;;;;;18.44;100.00;100562.92;105692;1270;104055;-80
2023/09/14 03:45:41;;;;;;;8.90;6.00;;;;;;;18.43;100.00;100570.09;105608;1270;100094;-81
2023/09/14 03:48:26;;;;;;;8.40;6.60;;;;;;;18.42;100.00;100571.54;105593;1272;99377;-81
2023/09/14 03:51:11;;;;;;;9.70;6.10;;;;;;;18.42;100.00;100570.78;105590;1270;99417;-81
2023/09/14 03:53:57;;;;;;;9.60;5.70;;;;;;;18.42;100.00;100576.38;105590;1269;99323;-81
2023/09/14 03:56:42;;;;;;;8.20;6.00;;;;;;;18.42;100.00;100580.75;105682;1271;102772;-81
2023/09/14 03:59:28;;;;;;;8.20;5.70;;;;;;;18.44;100.00;100588.36;105686;1273;99364;-81
2023/09/14 04:02:14;;;;;;;6.20;5.30;;;;;;;18.43;100.00;100590.63;105528;1271;99490;-81
2023/09/14 04:05:10;;;;;;;6.00;5.10;;;;;;;18.42;100.00;100594.81;105681;1274;97376;-82
2023/09/14 04:07:56;;;;;;;9.10;5.60;;;;;;;18.42;100.00;100600.35;107673;1268;96853;-81
2023/09/14 04:10:41;;;;;;;10.00;5.20;;;;;;;18.39;100.00;100603.33;105987;1273;102722;-81
2023/09/14 04:13:33;;;;;;;7.20;5.00;;;;;;;18.36;100.00;100608.73;105591;1272;99349;-80
2023/09/14 04:16:28;;;;;;;9.40;6.20;;;;;;;18.34;100.00;100616.88;105582;1270;99354;-80
2023/09/14 04:19:14;;;;;;;8.20;4.60;;;;;;;18.31;100.00;100616.76;105719;1270;98005;-81
2023/09/14 04:22:00;;;;;;;5.60;4.80;;;;;;;18.27;100.00;100620.13;106368;1273;99908;-80
2023/09/14 04:24:46;;;;;;;8.40;5.00;;;;;;;18.24;100.00;100619.67;105617;1269;103374;-80
2023/09/14 04:27:32;;;;;;;8.40;5.90;;;;;;;18.23;100.00;100623.95;105543;1271;99423;-79
2023/09/14 04:30:18;;;;;;;5.90;4.60;;;;;;;18.23;100.00;100624.11;105423;1273;99278;-80
2023/09/14 04:33:04;;;;;;;7.90;5.00;;;;;;;18.22;100.00;100628.15;105565;1273;99342;-80
2023/09/14 04:35:56;;;;;;;7.80;4.80;;;;;;;18.20;100.00;100633.73;105522;1271;99921;-82
2023/09/14 04:38:41;;;;;;;6.10;4.10;;;;;;;18.17;100.00;100639.96;105358;1273;102753;-81
2023/09/14 04:41:27;;;;;;;4.80;3.90;;;;;;;18.15;100.00;100642.09;105380;1273;99864;-82
2023/09/14 04:44:12;;;;;;;5.20;4.70;;;;;;;18.13;100.00;100644.41;105466;1270;99403;-81
2023/09/14 04:46:58;;;;;;;7.40;4.40;;;;;;;18.08;100.00;100647.82;105427;1273;99351;-81
2023/09/14 04:49:44;;;;;;;5.40;4.50;;;;;;;18.08;100.00;100649.95;105428;1272;99352;-81
2023/09/14 04:52:29;;;;;;;16.40;5.10;;;;;;;18.10;100.00;100649.55;105462;1273;102890;-81
2023/09/14 04:55:15;;;;;;;6.90;4.50;;;;;;;18.10;100.00;100656.09;105593;1273;100029;-81
2023/09/14 04:58:01;;;;;;;6.50;4.40;;;;;;;18.07;100.00;100658.15;105613;1273;99377;-81
2023/09/14 05:00:49;;;;;;;5.30;3.90;;;;;;;18.04;100.00;100661.16;105625;1273;99449;-82
2023/09/14 05:03:35;;;;;;;4.40;3.80;;;;;;;18.02;100.00;100665.98;105587;1270;100184;-81
2023/09/14 05:06:21;;;;;;;7.40;4.30;;;;;;;17.99;100.00;100670.36;105471;1270;103986;-82
2023/09/14 05:09:07;;;;;;;4.90;4.20;;;;;;;17.97;100.00;100671.07;105549;1270;99843;-81
2023/09/14 05:11:52;;;;;;;7.00;4.10;;;;;;;17.96;100.00;100675.29;105636;1271;100639;-81
2023/09/14 05:14:38;;;;;;;6.40;4.50;;;;;;;17.99;100.00;100678.88;105607;1270;99413;-82
2023/09/14 05:17:24;;;;;;;4.80;4.20;;;;;;;18.01;100.00;100684.35;105555;1274;99955;-80
2023/09/14 05:20:14;;;;;;;5.40;4.20;;;;;;;18.03;100.00;100686.14;105676;1272;103257;-79
2023/09/14 05:23:00;;;;;;;7.50;4.80;;;;;;;18.06;100.00;100688.27;105603;1273;99919;-81
2023/09/14 05:25:46;;;;;;;7.70;3.70;;;;;;;18.08;100.00;100688.48;105690;1273;99265;-81
2023/09/14 05:28:32;;;;;;;7.90;4.20;;;;;;;18.10;100.00;100691.17;105606;1270;100139;-81
2023/09/14 05:31:17;;;;;;;5.10;4.20;;;;;;;18.07;100.00;100693.45;105863;1270;99148;-81
2023/09/14 05:34:02;;;;;;;6.20;4.20;;;;;;;18.06;100.00;100697.45;105624;1273;104277;-80
2023/09/14 05:36:49;;;;;;;4.90;4.30;;;;;;;18.06;100.00;100696.52;105698;1270;100915;-81
2023/09/14 05:39:35;;;;;;;5.80;3.80;;;;;;;18.08;100.00;100696.09;105645;1273;99336;-81
2023/09/14 05:42:22;;;;;;;6.40;4.00;;;;;;;18.09;100.00;100699.51;105614;1270;99424;-82
2023/09/14 05:45:11;;;;;;;9.20;4.20;;;;;;;18.10;100.00;100702.73;105807;1273;100989;-80
2023/09/14 05:47:56;;;;;;;7.40;3.90;;;;;;;18.11;100.00;100704.23;105610;1283;103986;-80
2023/09/14 05:50:42;;;;;;;7.20;4.10;;;;;;;18.13;100.00;100704.92;105710;1272;99326;-81
2023/09/14 05:53:28;;;;;;;6.00;4.30;;;;;;;18.13;100.00;100706.50;105613;1273;99765;-81
2023/09/14 05:56:13;;;;;;;5.00;3.90;;;;;;;18.12;100.00;100704.64;105700;1273;99330;-81
2023/09/14 05:58:59;;;;;;;4.70;3.60;;;;;;;18.14;100.00;100704.98;105760;1273;99351;-81
2023/09/14 06:01:45;;;;;;;6.60;4.00;;;;;;;18.17;100.00;100705.68;105817;1273;103658;-81
2023/09/14 06:04:31;;;;;;;3.40;3.00;;;;;;;18.20;100.00;100707.84;105683;1273;99388;-81
2023/09/14 06:07:17;;;;;;;5.20;3.60;;;;;;;18.21;100.00;100711.27;105695;1272;99400;-81
2023/09/14 06:10:03;;;;;;;5.60;3.90;;;;;;;18.23;100.00;100712.35;105682;1273;99332;-81
2023/09/14 06:12:50;;;;;;;4.20;3.60;;;;;;;18.25;100.00;100710.39;105797;1270;97241;-81
2023/09/14 06:15:35;;;;;;;4.90;4.10;;;;;;;18.27;100.00;100715.64;105739;1270;102713;-81
2023/09/14 06:18:20;;;;;;;4.90;3.30;;;;;;;18.32;100.00;100714.12;105567;1270;99399;-81
2023/09/14 06:21:06;;;;;;;5.70;3.50;;;;;;;18.36;100.00;100716.83;105699;1268;99326;-81
2023/09/14 06:23:51;;;;;;;5.50;3.20;;;;;;;18.41;100.00;100723.23;105747;1273;99352;-81
2023/09/14 06:26:38;;;;;;;6.00;3.20;;;;;;;18.47;100.00;100726.13;105841;1273;99261;-81
2023/09/14 06:29:23;;;;;;;5.90;3.30;;;;;;;18.48;100.00;100728.27;105975;1270;102777;-81
2023/09/14 06:32:08;;;;;;;5.90;3.40;;;;;;;18.51;100.00;100733.65;105774;1270;99309;-82
2023/09/14 06:34:55;;;;;;;7.20;3.60;;;;;;;18.52;100.00;100734.39;105955;1273;99365;-87
2023/09/14 06:37:40;;;;;;;4.50;3.40;;;;;;;18.54;100.00;100736.17;105419;1270;99370;-91
2023/09/14 06:40:27;;;;;;;5.70;3.30;;;;;;;18.59;100.00;100738.56;105710;1270;99426;-92
2023/09/14 06:43:13;;;;;;;3.90;3.30;;;;;;;18.63;100.00;100735.55;105404;1270;102736;-88
2023/09/14 06:45:59;;;;;;;3.90;3.30;;;;;;;18.67;100.00;100741.54;105795;1276;107888;-90
2023/09/14 06:48:45;;;;;;;5.80;3.50;;;;;;;18.70;100.00;100741.92;105703;1270;97974;-87
2023/09/14 06:51:31;;;;;;;3.60;3.20;;;;;;;18.71;100.00;100744.55;105662;1270;99285;-90
2023/09/14 06:54:19;;;;;;;6.90;3.50;;;;;;;18.72;100.00;100748.71;105881;1270;99281;-91
2023/09/14 06:57:05;;;;;;;6.80;3.60;;;;;;;18.75;100.00;100748.16;105871;1270;102684;-92
2023/09/14 06:59:51;;;;;;;5.40;3.50;;;;;;;18.77;100.00;100753.42;105670;1273;99266;-90
2023/09/14 07:02:37;;;;;;;5.30;3.40;;;;;;;18.78;100.00;100754.44;105779;1270;100476;-90
2023/09/14 07:05:24;;;;;;;3.90;3.50;;;;;;;18.80;100.00;100755.88;105500;1270;99452;-85
2023/09/14 07:08:09;;;;;;;4.80;3.40;;;;;;;18.81;100.00;100755.65;105717;1276;99874;-88
2023/09/14 07:10:55;;;;;;;3.80;3.00;;;;;;;18.84;100.00;100755.05;105466;1272;102690;-89
2023/09/14 07:13:41;;;;;;;7.50;3.10;;;;;;;18.86;100.00;100753.63;105567;1273;100480;-88
2023/09/14 07:16:27;;;;;;;4.30;3.50;;;;;;;18.89;100.00;100757.92;105912;1270;97963;-90
2023/09/14 07:19:13;;;;;;;4.20;2.80;;;;;;;18.94;100.00;100758.44;105707;1270;99410;-90
2023/09/14 07:22:02;;;;;;;5.50;3.50;;;;;;;18.94;100.00;100762.58;105783;1273;99767;-91
2023/09/14 07:24:48;;;;;;;4.00;3.60;;;;;;;18.95;100.00;100764.81;105795;1270;102852;-91
2023/09/14 07:27:35;;;;;;;3.50;3.10;;;;;;;18.99;100.00;100763.11;105933;1270;99324;-90
2023/09/14 07:30:21;;;;;;;5.80;3.70;;;;;;;19.04;100.00;100766.66;105889;1277;99441;-91
2023/09/14 07:33:07;;;;;;;3.40;3.00;;;;;;;19.10;100.00;100771.30;106018;1276;99287;-90
2023/09/14 07:35:56;;;;;;;3.60;3.10;;;;;;;19.14;100.00;100768.88;105882;1273;99495;-92
2023/09/14 07:38:43;;;;;;;4.30;3.30;;;;;;;19.22;100.00;100770.70;106135;1273;102737;-87
2023/09/14 07:41:29;;;;;;;3.50;3.20;;;;;;;19.32;100.00;100772.05;105585;1270;99271;-87
2023/09/14 07:44:14;;;;;;;3.30;2.40;;;;;;;19.40;100.00;100771.08;105454;1273;99363;-87
2023/09/14 07:47:00;;;;;;;5.10;4.00;;;;;;;19.43;100.00;100772.77;105591;1270;99361;-89
2023/09/14 07:49:47;;;;;;;7.10;4.20;;;;;;;19.44;100.00;100777.42;105309;1273;99803;-87
2023/09/14 07:52:32;;;;;;;5.10;3.80;;;;;;;19.47;100.00;100776.95;105144;1270;102788;-84
2023/09/14 07:55:18;;;;;;;4.10;3.70;;;;;;;19.52;100.00;100777.97;105208;1271;100508;-84
2023/09/14 07:58:06;;;;;;;4.10;3.70;;;;;;;19.57;100.00;100777.54;105328;1270;100287;-84
2023/09/14 08:00:51;;;;;;;7.20;4.20;;;;;;;19.65;100.00;100779.75;105481;1273;99477;-88
2023/09/14 08:03:37;;;;;;;3.50;3.20;;;;;;;19.73;100.00;100782.70;105770;1270;99436;-87
2023/09/14 08:06:24;;;;;;;5.10;3.40;;;;;;;19.81;100.00;100782.62;106058;1274;102790;-89
2023/09/14 08:09:10;;;;;;;3.30;3.00;;;;;;;19.89;100.00;100780.89;106011;1270;99317;-90
2023/09/14 08:11:55;;;;;;;3.90;3.20;;;;;;;19.99;100.00;100786.02;105140;1268;99419;-85
2023/09/14 08:14:41;;;;;;;6.30;3.70;;;;;;;20.06;100.00;100784.23;105397;1270;99381;-88
2023/09/14 08:17:27;;;;;;;5.80;2.50;;;;;;;20.14;100.00;100788.85;105171;1270;99777;-85
2023/09/14 08:20:12;;;;;;;2.90;2.50;;;;;;;20.18;99.84;100788.54;105297;1270;104132;-86
2023/09/14 08:22:58;;;;;;;5.00;3.00;;;;;;;20.15;99.12;100788.36;105995;1268;99418;-89
2023/09/14 08:25:44;;;;;;;4.20;2.70;;;;;;;20.08;99.01;100786.89;105654;1270;100038;-88
2023/09/14 08:28:38;;;;;;;3.00;2.70;;;;;;;20.00;98.11;100790.38;107329;1266;97207;-87
2023/09/14 08:31:24;;;;;;;4.80;3.10;;;;;;;19.91;97.93;100797.61;107627;1270;96580;-86
2023/09/14 08:34:09;;;;;;;3.00;2.70;;;;;;;19.86;98.08;100801.05;106435;1267;104189;-86
2023/09/14 08:36:56;;;;;;;3.80;2.70;;;;;;;19.84;98.41;100800.86;105627;1276;100754;-83
2023/09/14 08:39:41;;;;;;;4.00;3.10;;;;;;;19.85;98.31;100800.43;105891;1270;99742;-87
2023/09/14 08:42:27;;;;;;;4.30;2.50;;;;;;;19.86;98.55;100804.17;106225;1272;97758;-91
2023/09/14 08:45:15;;;;;;;3.10;2.70;;;;;;;19.95;98.85;100805.52;106073;1268;99230;-92
2023/09/14 08:48:02;;;;;;;3.20;2.30;;;;;;;20.08;99.20;100805.94;106460;1273;102794;-93
2023/09/14 08:51:14;;;;;;;2.90;2.40;;;;;;;20.23;98.82;100805.79;106116;1267;100220;-92
2023/09/14 08:54:00;;;;;;;5.00;2.40;;;;;;;20.31;97.69;100808.33;105877;1273;99156;-90
2023/09/14 08:56:49;;;;;;;2.20;2.00;;;;;;;20.29;96.55;100813.31;105964;1267;99515;-89
2023/09/14 08:59:36;;;;;;;2.40;2.20;;;;;;;20.26;95.98;100816.52;106180;1272;100954;-91
2023/09/14 09:02:24;;;;;;;3.40;1.70;;;;;;;20.26;95.86;100816.64;105160;1273;103469;-85
2023/09/14 09:05:14;;;;;;;3.70;2.00;;;;;;;20.26;95.50;100818.48;105620;1270;99809;-85
2023/09/14 09:08:00;;;;;;;3.30;2.70;;;;;;;20.28;95.75;100820.91;105515;1272;99482;-84
2023/09/14 09:10:47;;;;;;;2.20;1.90;;;;;;;20.31;96.17;100821.52;105554;1275;99348;-89
2023/09/14 09:13:35;;;;;;;2.50;2.30;;;;;;;20.35;95.80;100823.27;105379;1268;99895;-90
2023/09/14 09:16:20;;;;;;;6.60;2.40;;;;;;;20.36;95.59;100824.97;105686;1269;104193;-89
2023/09/14 09:19:07;;;;;;;3.50;1.90;;;;;;;20.41;95.80;100821.52;105554;1274;101359;-87
2023/09/14 09:21:53;;;;;;;2.30;2.10;;;;;;;20.47;95.78;100820.37;105665;1273;99274;-84
2023/09/14 09:24:39;;;;;;;2.60;2.00;;;;;;;20.56;95.94;100824.72;105173;1267;99376;-84
2023/09/14 09:27:26;;;;;;;2.20;1.70;;;;;;;20.60;94.88;100825.57;105380;1268;99185;-86
2023/09/14 09:30:13;;;;;;;2.60;1.90;;;;;;;20.62;94.00;100827.82;105357;1274;104010;-86
2023/09/14 09:32:59;;;;;;;2.90;2.20;;;;;;;20.66;93.99;100830.88;105567;1270;100485;-85
2023/09/14 09:35:44;;;;;;;2.60;2.40;;;;;;;20.66;93.88;100827.01;105429;1283;99930;-87
2023/09/14 09:38:37;;;;;;;8.10;2.70;;;;;;;20.67;94.16;100827.73;105523;1269;99348;-86
2023/09/14 09:41:23;;;;;;;3.30;2.20;;;;;;;20.70;93.73;100829.77;105560;1273;100598;-85
2023/09/14 09:44:09;;;;;;;3.20;2.80;;;;;;;20.68;93.28;100829.98;105390;1273;104021;-85
2023/09/14 09:46:58;;;;;;;3.40;2.70;;;;;;;20.66;93.35;100835.00;105199;1273;99450;-85
2023/09/14 09:49:44;;;;;;;3.60;2.50;;;;;;;20.67;93.60;100831.49;105088;1272;99361;-85
2023/09/14 09:52:32;;;;;;;2.90;2.60;;;;;;;20.71;93.89;100832.49;105185;1273;99447;-85
2023/09/14 09:55:23;;;;;;;2.70;2.50;;;;;;;20.79;94.06;100831.80;106778;1273;99863;-86
2023/09/14 09:58:09;;;;;;;;;;;;;;;20.93;94.41;100830.65;105172;1270;102864;-85
2023/09/14 10:00:57;;;;;;;2.20;1.80;;;;;;;21.07;93.94;100830.14;105135;1273;99345;-85
2023/09/14 10:03:47;;;;;;;2.20;1.70;;;;;;;21.15;92.50;100828.46;105053;1273;99322;-85
2023/09/14 10:06:33;;;;;;;3.10;1.70;;;;;;;21.10;91.15;100832.10;104974;1276;99323;-85
2023/09/14 10:09:19;;;;;;;1.70;1.20;;;;;;;21.08;90.69;100833.42;105065;1267;99306;-86
2023/09/14 10:12:06;;;;;;;1.40;1.10;;;;;;;21.09;89.97;100831.65;105154;1267;102745;-85
2023/09/14 10:14:58;;;;;;;1.50;1.20;;;;;;;21.04;88.92;100838.14;104995;1273;100479;-85
2023/09/14 10:17:47;;;;;;;1.20;1.00;;;;;;;20.94;88.83;100841.88;105155;1273;99195;-86
2023/09/14 10:20:33;;;;;;;1.40;1.30;;;;;;;20.88;89.71;100849.73;105166;1273;99444;-86
2023/09/14 10:23:21;;;;;;;1.90;1.60;;;;;;;20.84;90.13;100855.88;105096;1273;99234;-86
2023/09/14 10:26:06;;;;;;;1.90;1.80;;;;;;;20.76;89.74;100860.56;105488;1270;102808;-85
2023/09/14 10:28:53;;;;;;;1.50;1.40;;;;;;;20.70;90.25;100861.05;105005;1267;100401;-85
2023/09/14 10:31:42;;;;;;;2.30;2.00;;;;;;;20.69;90.15;100860.07;106439;1267;99437;-83
2023/09/14 10:34:29;;;;;;;2.10;1.80;;;;;;;20.70;90.53;100862.13;107069;1268;99233;-82
2023/09/14 10:37:16;;;;;;;2.30;1.70;;;;;;;20.72;90.73;100860.86;105509;1267;99329;-84
2023/09/14 10:40:04;;;;;;;2.20;2.00;;;;;;;20.78;91.11;100859.05;104979;1276;102791;-83
2023/09/14 10:42:50;;;;;;;2.00;1.80;;;;;;;20.86;90.95;100855.91;105366;1273;99420;-86
2023/09/14 10:45:39;;;;;;;4.20;1.60;;;;;;;20.93;90.69;100853.60;105194;1273;99433;-84
2023/09/14 10:48:29;;;;;;;2.70;1.70;;;;;;;21.00;90.74;100851.15;104963;1270;99352;-83
2023/09/14 10:51:14;;;;;;;2.20;1.10;;;;;;;21.11;90.71;100849.59;105257;1273;99338;-84
2023/09/14 10:54:01;;;;;;;1.30;0.90;;;;;;;21.21;89.26;100849.86;105288;1273;102763;-85
2023/09/14 10:56:47;;;;;;;5.00;1.30;;;;;;;21.24;88.01;100851.43;104900;1270;99505;-85
2023/09/14 10:59:51;;;;;;;1.50;1.10;;;;;;;21.27;87.37;100850.98;105078;1270;99432;-84
2023/09/14 11:02:39;;;;;;;0.60;0.60;;;;;;;21.27;86.85;100851.90;105024;1267;99368;-85
2023/09/14 11:05:47;;;;;;;1.30;1.00;;;;;;;21.30;86.51;100856.20;105215;1267;99805;-86
2023/09/14 11:09:01;;;;;;;1.30;0.70;;;;;;;21.33;86.18;100859.31;105120;1270;103579;-86
2023/09/14 11:11:50;;;;;;;2.00;0.80;;;;;;;21.40;86.13;100861.42;105178;1267;107806;-84
2023/09/14 11:14:36;;;;;;;1.30;0.90;;;;;;;21.53;86.20;100864.70;106122;1272;99399;-84
2023/09/14 11:17:22;;;;;;;0.90;0.90;;;;;;;21.65;86.32;100862.35;105151;1267;99411;-85
2023/09/14 11:20:30;;;;;;;1.80;1.50;;;;;;;21.71;85.62;100860.86;105183;1273;99293;-85
2023/09/14 11:23:16;;;;;;;3.30;1.60;;;;;;;21.76;85.73;100859.44;105140;1267;102732;-86
2023/09/14 11:26:02;;;;;;;1.50;1.40;;;;;;;21.81;85.73;100857.35;105163;1271;100187;-85
2023/09/14 11:28:49;;;;;;;3.00;1.20;;;;;;;21.86;86.02;100861.50;105106;1273;99309;-86
2023/09/14 11:31:36;;;;;;;2.40;1.00;;;;;;;21.83;85.72;100869.90;105069;1273;99330;-84
2023/09/14 11:34:23;;;;;;;2.30;1.00;;;;;;;21.71;84.81;100872.41;105062;1272;99516;-84
2023/09/14 11:37:12;;;;;;;1.40;0.90;;;;;;;21.58;84.65;100875.83;105242;1270;102758;-85
2023/09/14 11:39:58;;;;;;;1.80;1.10;;;;;;;21.45;84.74;100878.70;105104;1273;99740;-85
2023/09/14 11:43:21;;;;;;;3.60;1.20;;;;;;;21.35;84.89;100882.16;105012;1267;99814;-83
2023/09/14 11:46:07;;;;;;;2.10;1.10;;;;;;;21.29;85.53;100885.62;105215;1268;99264;-84
2023/09/14 11:48:53;;;;;;;1.50;1.30;;;;;;;21.28;85.49;100883.54;105101;1267;99342;-84
2023/09/14 11:51:38;;;;;;;1.70;1.50;;;;;;;21.24;85.73;100884.13;105031;1270;102816;-85
2023/09/14 11:54:31;;;;;;;1.30;1.20;;;;;;;21.21;85.66;100882.27;105032;1267;99236;-85
2023/09/14 11:57:17;;;;;;;1.40;1.10;;;;;;;21.18;86.04;100885.78;105501;1267;100113;-84
2023/09/14 12:00:05;;;;;;;2.20;1.40;;;;;;;21.15;86.34;100884.15;105100;1267;99274;-86
2023/09/14 12:02:51;;;;;;;2.50;1.20;;;;;;;21.13;86.96;100885.80;105274;1267;99328;-85
2023/09/14 12:05:38;;;;;;;1.30;1.20;;;;;;;21.12;87.21;100889.10;105108;1267;102592;-85
2023/09/14 12:08:23;;;;;;;1.90;1.20;;;;;;;21.04;86.80;100890.97;105090;1273;99326;-85
2023/09/14 12:11:09;;;;;;;0.90;0.80;;;;;;;20.96;86.68;100892.52;105134;1267;99351;-85
2023/09/14 12:13:55;;;;;;;4.70;1.00;;;;;;;20.90;86.51;100894.33;105146;1273;99441;-85
2023/09/14 12:16:41;;;;;;;1.30;0.70;;;;;;;20.83;86.04;100893.41;105160;1272;99772;-84
2023/09/14 12:19:27;;;;;;;4.10;0.80;;;;;;;20.77;86.04;100895.15;105170;1272;104022;-85
2023/09/14 12:22:14;;;;;;;1.80;0.70;;;;;;;20.74;85.88;100897.77;105157;1273;99920;-82
2023/09/14 12:25:03;;;;;;;1.10;0.70;;;;;;;20.69;85.66;100897.57;105192;1267;100620;-84
2023/09/14 12:27:49;;;;;;;2.90;0.70;;;;;;;20.66;85.92;100899.41;105185;1267;99338;-85
2023/09/14 12:30:37;;;;;;;1.50;0.60;;;;;;;20.64;86.29;100902.16;105249;1270;99840;-85
2023/09/14 12:33:22;;;;;;;2.50;1.10;;;;;;;20.64;86.29;100902.54;105117;1267;104281;-85
2023/09/14 12:36:10;;;;;;;0.80;0.70;;;;;;;20.62;86.00;100910.30;105089;1267;99362;-84